createdAt,value
2023-05-06T00:00:09.188Z,99281.53
2023-05-06T00:04:13.400Z,99287.72
2023-05-06T00:08:16.335Z,99275.69
2023-05-06T00:12:19.055Z,99274.41
2023-05-06T00:16:21.881Z,99284.41
2023-05-06T00:20:26.402Z,99276.66
2023-05-06T00:24:29.058Z,99273.56
2023-05-06T00:28:31.795Z,99279.00
2023-05-06T00:32:34.835Z,99287.97
2023-05-06T00:36:39.594Z,99281.28
2023-05-06T00:40:42.355Z,99282.94
2023-05-06T00:44:45.297Z,99277.66
2023-05-06T00:48:48.266Z,99280.50
2023-05-06T00:52:54.624Z,99271.63
2023-05-06T00:56:57.376Z,99264.28
2023-05-06T01:01:01.786Z,99274.03
2023-05-06T01:05:05.411Z,99265.91
2023-05-06T01:09:15.887Z,99267.16
2023-05-06T01:13:22.793Z,99261.63
2023-05-06T01:17:28.970Z,99255.28
2023-05-06T01:21:34.954Z,99256.41
2023-05-06T01:25:39.151Z,99256.69
2023-05-06T01:29:44.015Z,99252.38
2023-05-06T01:33:52.082Z,99257.72
2023-05-06T01:38:00.678Z,99252.53
2023-05-06T01:42:05.080Z,99248.44
2023-05-06T01:46:08.413Z,99255.09
2023-05-06T01:50:12.099Z,99259.84
2023-05-06T01:54:15.005Z,99264.06
2023-05-06T01:58:19.499Z,99258.09
2023-05-06T02:02:22.293Z,99262.19
2023-05-06T02:11:46.720Z,99254.19
2023-05-06T02:15:54.971Z,99249.88
2023-05-06T02:19:57.849Z,99260.84
2023-05-06T02:24:00.735Z,99250.31
2023-05-06T02:28:03.448Z,99247.72
2023-05-06T02:32:07.623Z,99245.03
2023-05-06T02:36:10.314Z,99243.66
2023-05-06T02:40:13.532Z,99246.78
2023-05-06T02:44:16.137Z,99244.25
2023-05-06T02:48:20.521Z,99241.72
2023-05-06T02:52:23.152Z,99243.44
2023-05-06T02:56:25.950Z,99243.50
2023-05-06T03:00:28.603Z,99238.88
2023-05-06T03:04:32.854Z,99247.00
2023-05-06T03:08:35.705Z,99251.66
2023-05-06T03:12:38.464Z,99250.06
2023-05-06T03:16:41.436Z,99253.88
2023-05-06T03:20:45.535Z,99245.06
2023-05-06T03:24:48.455Z,99249.13
2023-05-06T03:28:51.282Z,99243.19
2023-05-06T03:32:54.694Z,99232.34
2023-05-06T03:36:59.166Z,99231.78
2023-05-06T03:41:01.892Z,99239.97
2023-05-06T03:45:05.434Z,99239.41
2023-05-06T03:49:08.387Z,99238.75
2023-05-06T03:53:12.810Z,99242.63
2023-05-06T03:57:15.650Z,99249.28
2023-05-06T04:01:18.492Z,99249.41
2023-05-06T04:05:21.319Z,99256.59
2023-05-06T04:09:25.615Z,99258.53
2023-05-06T04:13:28.701Z,99254.69
2023-05-06T04:17:31.412Z,99257.88
2023-05-06T04:21:34.246Z,99261.19
2023-05-06T04:25:38.343Z,99264.97
2023-05-06T04:29:41.139Z,99263.38
2023-05-06T04:33:43.775Z,99279.44
2023-05-06T04:37:46.357Z,99275.06
2023-05-06T04:41:50.837Z,99278.16
2023-05-06T04:45:54.419Z,99278.34
2023-05-06T04:49:57.399Z,99278.00
2023-05-06T04:54:00.153Z,99281.22
2023-05-06T04:58:04.241Z,99278.44
2023-05-06T05:02:06.981Z,99294.06
2023-05-06T05:06:10.078Z,99284.75
2023-05-06T05:10:13.066Z,99287.81
2023-05-06T05:14:17.320Z,99298.31
2023-05-06T05:18:20.011Z,99302.91
2023-05-06T05:22:22.710Z,99308.44
2023-05-06T05:26:26.066Z,99312.09
2023-05-06T05:30:30.159Z,99312.06
2023-05-06T05:34:32.817Z,99311.63
2023-05-06T05:38:35.690Z,99316.88
2023-05-06T05:42:38.440Z,99321.94
2023-05-06T05:46:42.922Z,99321.94
2023-05-06T05:50:46.015Z,99328.69
2023-05-06T05:54:49.212Z,99324.09
2023-05-06T05:58:52.254Z,99323.78
2023-05-06T06:02:56.663Z,99330.81
2023-05-06T06:07:01.899Z,99319.19
2023-05-06T06:11:06.163Z,99328.09
2023-05-06T06:15:10.335Z,99330.19
2023-05-06T06:19:14.823Z,99337.88
2023-05-06T06:23:18.068Z,99334.50
2023-05-06T06:27:21.152Z,99335.78
2023-05-06T06:31:24.167Z,99337.22
2023-05-06T06:35:28.529Z,99339.72
2023-05-06T06:39:31.538Z,99317.66
2023-05-06T06:43:34.409Z,99343.53
2023-05-06T06:47:37.588Z,99339.13
2023-05-06T06:51:42.090Z,99345.28
2023-05-06T06:55:44.932Z,99347.94
2023-05-06T06:59:48.867Z,99343.28
2023-05-06T07:03:51.859Z,99345.28
2023-05-06T07:07:56.300Z,99362.13
2023-05-06T07:11:59.161Z,99351.84
2023-05-06T07:16:02.089Z,99350.00
2023-05-06T07:20:06.451Z,99355.06
2023-05-06T07:24:10.870Z,99350.25
2023-05-06T07:28:13.667Z,99352.56
2023-05-06T07:32:16.779Z,99347.63
2023-05-06T07:36:19.505Z,99351.19
2023-05-06T07:40:24.208Z,99344.75
2023-05-06T07:44:27.288Z,99350.25
2023-05-06T07:48:30.164Z,99341.03
2023-05-06T07:52:32.947Z,99346.81
2023-05-06T07:56:37.001Z,99347.94
2023-05-06T08:00:39.982Z,99352.44
2023-05-06T08:04:42.956Z,99341.91
2023-05-06T08:08:46.562Z,99342.38
2023-05-06T08:12:50.892Z,99345.81
2023-05-06T08:16:54.406Z,99336.50
2023-05-06T08:20:57.106Z,99353.56
2023-05-06T08:24:59.846Z,99351.00
2023-05-06T08:29:04.261Z,99348.09
2023-05-06T08:33:07.093Z,99347.19
2023-05-06T08:37:09.835Z,99343.13
2023-05-06T08:41:13.001Z,99337.47
2023-05-06T08:45:18.383Z,99336.50
2023-05-06T08:49:21.391Z,99330.81
2023-05-06T08:53:24.350Z,99334.75
2023-05-06T08:57:27.065Z,99327.91
2023-05-06T09:01:31.543Z,99327.69
2023-05-06T09:05:34.532Z,99325.84
2023-05-06T09:09:37.216Z,99324.78
2023-05-06T09:13:39.798Z,99331.91
2023-05-06T09:17:44.378Z,99313.72
2023-05-06T09:21:48.896Z,99319.78
2023-05-06T09:25:51.934Z,99317.91
2023-05-06T09:30:02.605Z,99322.94
2023-05-06T09:34:06.918Z,99321.06
2023-05-06T09:38:11.001Z,99320.72
2023-05-06T09:42:14.267Z,99309.81
2023-05-06T09:46:17.935Z,99310.88
2023-05-06T09:50:23.625Z,99310.31
2023-05-06T09:54:26.455Z,99298.50
2023-05-06T09:58:32.184Z,99301.28
2023-05-06T10:02:35.953Z,99293.13
2023-05-06T10:06:41.808Z,99296.66
2023-05-06T10:10:44.645Z,99301.56
2023-05-06T10:14:47.615Z,99288.97
2023-05-06T10:18:51.587Z,99293.13
2023-05-06T10:23:02.919Z,99279.53
2023-05-06T10:27:06.924Z,99279.72
2023-05-06T10:31:13.138Z,99276.25
2023-05-06T10:35:22.036Z,99249.41
2023-05-06T10:39:26.384Z,99259.25
2023-05-06T10:43:30.962Z,99251.25
2023-05-06T10:48:10.447Z,99252.59
2023-05-06T10:52:14.591Z,99256.84
2023-05-06T10:56:19.239Z,99242.03
2023-05-06T11:00:22.678Z,99253.81
2023-05-06T11:04:25.502Z,99242.31
2023-05-06T11:08:28.679Z,99239.38
2023-05-06T11:12:47.463Z,99230.91
2023-05-06T11:16:51.673Z,99229.19
2023-05-06T11:21:40.257Z,99238.09
2023-05-06T11:25:47.395Z,99231.47
2023-05-06T11:29:52.382Z,99214.34
2023-05-06T11:33:58.056Z,99201.13
2023-05-06T11:38:02.477Z,99207.75
2023-05-06T11:42:07.321Z,99179.34
2023-05-06T11:46:11.861Z,99214.44
2023-05-06T11:50:15.384Z,99216.44
2023-05-06T11:54:20.566Z,99182.25
2023-05-06T11:58:26.438Z,99198.03
2023-05-06T12:02:31.218Z,99199.53
2023-05-06T12:06:35.492Z,99208.81
2023-05-06T12:10:38.365Z,99209.19
2023-05-06T12:14:41.553Z,99198.50
2023-05-06T12:18:46.052Z,99204.34
2023-05-06T12:23:07.736Z,99206.69
2023-05-06T12:27:10.551Z,99195.06
2023-05-06T12:31:20.420Z,99198.44
2023-05-06T12:35:28.667Z,99205.03
2023-05-06T12:39:35.675Z,99203.38
2023-05-06T12:43:38.605Z,99194.75
2023-05-06T12:47:41.500Z,99196.47
2023-05-06T12:51:47.126Z,99193.50
2023-05-06T12:55:50.696Z,99187.78
2023-05-06T12:59:53.857Z,99183.75
2023-05-06T13:03:57.233Z,99188.25
2023-05-06T13:08:01.682Z,99185.66
2023-05-06T13:12:05.377Z,99187.63
2023-05-06T13:16:09.110Z,99178.47
2023-05-06T13:20:13.723Z,99160.41
2023-05-06T13:24:18.789Z,99176.16
2023-05-06T13:28:21.825Z,99161.22
2023-05-06T13:32:24.576Z,99162.78
2023-05-06T13:36:28.245Z,99155.03
2023-05-06T13:40:32.537Z,99149.69
2023-05-06T13:44:36.005Z,99116.13
2023-05-06T13:48:40.082Z,99145.59
2023-05-06T13:52:43.253Z,99137.31
2023-05-06T13:56:47.862Z,99139.56
2023-05-06T14:00:50.796Z,99133.66
2023-05-06T14:04:53.556Z,99123.72
2023-05-06T14:08:56.790Z,99129.78
2023-05-06T14:13:07.167Z,99121.06
2023-05-06T14:17:11.339Z,99124.75
2023-05-06T14:21:14.237Z,99115.84
2023-05-06T14:25:17.238Z,99113.41
2023-05-06T14:29:23.486Z,99116.16
2023-05-06T14:33:26.317Z,99112.56
2023-05-06T14:37:29.283Z,99110.44
2023-05-06T14:41:32.147Z,99103.59
2023-05-06T14:45:36.434Z,99107.63
2023-05-06T14:49:39.456Z,99103.06
2023-05-06T14:53:42.424Z,99100.53
2023-05-06T14:57:45.132Z,99104.91
2023-05-06T15:01:49.482Z,99106.13
2023-05-06T15:05:53.309Z,99096.81
2023-05-06T15:09:56.905Z,99093.97
2023-05-06T15:13:59.877Z,99087.56
2023-05-06T15:18:04.293Z,99089.38
2023-05-06T15:22:07.415Z,99091.94
2023-05-06T15:26:10.317Z,99093.97
2023-05-06T15:30:13.714Z,99100.59
2023-05-06T15:34:20.130Z,99094.59
2023-05-06T15:38:24.034Z,99091.59
2023-05-06T15:42:26.897Z,99105.00
2023-05-06T15:46:31.208Z,99065.66
2023-05-06T15:50:37.462Z,99099.00
2023-05-06T15:54:41.195Z,99100.41
2023-05-06T15:58:45.032Z,99098.53
2023-05-06T16:02:47.944Z,99099.63
2023-05-06T16:06:52.329Z,99093.50
2023-05-06T16:10:55.386Z,99084.63
2023-05-06T16:14:59.078Z,99080.59
2023-05-06T16:19:02.000Z,99075.63
2023-05-06T16:23:06.488Z,99072.00
2023-05-06T16:27:10.307Z,99079.81
2023-05-06T16:31:13.085Z,99079.00
2023-05-06T16:35:17.343Z,99076.38
2023-05-06T16:39:21.872Z,99075.97
2023-05-06T16:43:24.805Z,99082.47
2023-05-06T16:47:28.731Z,99077.94
2023-05-06T16:51:32.375Z,99076.63
2023-05-06T16:55:36.659Z,99073.84
2023-05-06T16:59:39.406Z,99073.94
2023-05-06T17:03:42.435Z,99070.56
2023-05-06T17:07:45.358Z,99076.47
2023-05-06T17:11:49.570Z,99058.09
2023-05-06T17:15:52.619Z,99076.69
2023-05-06T17:19:55.892Z,99074.34
2023-05-06T17:23:59.491Z,99065.66
2023-05-06T17:28:03.727Z,99071.16
2023-05-06T17:32:06.785Z,99066.56
2023-05-06T17:36:09.829Z,99062.50
2023-05-06T17:40:15.516Z,99058.78
2023-05-06T17:44:20.495Z,99056.66
2023-05-06T17:48:26.927Z,99048.69
2023-05-06T17:52:29.967Z,99058.78
2023-05-06T17:56:33.039Z,99055.56
2023-05-06T18:00:38.446Z,99039.19
2023-05-06T18:04:43.913Z,99043.41
2023-05-06T18:08:47.116Z,99037.69
2023-05-06T18:12:51.239Z,99036.63
2023-05-06T18:16:55.914Z,99042.25
2023-05-06T18:20:59.061Z,99043.31
2023-05-06T18:25:02.149Z,99050.59
2023-05-06T18:29:05.743Z,99051.75
2023-05-06T18:33:10.479Z,99058.03
2023-05-06T18:37:13.842Z,99054.03
2023-05-06T18:41:17.174Z,99059.56
2023-05-06T18:45:20.396Z,99060.81
2023-05-06T18:49:27.532Z,99052.56
2023-05-06T18:53:32.187Z,99049.38
2023-05-06T18:57:35.461Z,99048.16
2023-05-06T19:01:40.601Z,99069.19
2023-05-06T19:05:45.281Z,99060.69
2023-05-06T19:09:55.100Z,99094.78
2023-05-06T19:13:58.306Z,99075.84
2023-05-06T19:18:08.776Z,99093.34
2023-05-06T19:22:13.845Z,99106.03
2023-05-06T19:31:33.296Z,99103.81
2023-05-06T19:35:38.084Z,99084.63
2023-05-06T19:39:42.803Z,99094.16
2023-05-06T19:43:45.965Z,99097.00
2023-05-06T19:47:49.238Z,99092.97
2023-05-06T19:51:52.658Z,99100.88
2023-05-06T19:55:59.281Z,99085.50
2023-05-06T20:00:10.148Z,99088.66
2023-05-06T20:04:14.039Z,99092.34
2023-05-06T20:08:17.669Z,99089.72
2023-05-06T20:12:22.270Z,99105.94
2023-05-06T20:16:25.502Z,99105.16
2023-05-06T20:20:39.953Z,99115.88
2023-05-06T20:24:43.661Z,99106.22
2023-05-06T20:28:48.668Z,99128.34
2023-05-06T20:32:52.817Z,99117.25
2023-05-06T20:37:10.448Z,99106.84
2023-05-06T20:41:13.883Z,99108.75
2023-05-06T20:45:20.657Z,99116.34
2023-05-06T20:49:23.863Z,99128.88
2023-05-06T20:53:27.419Z,99115.28
2023-05-06T20:57:31.256Z,99119.59
2023-05-06T21:01:37.781Z,99118.03
2023-05-06T21:05:41.437Z,99101.41
2023-05-06T21:09:44.639Z,99106.75
2023-05-06T21:13:50.064Z,99113.22
2023-05-06T21:17:55.297Z,99108.91
2023-05-06T21:21:58.454Z,99092.00
2023-05-06T21:26:01.796Z,99105.53
2023-05-06T21:30:05.181Z,99091.19
2023-05-06T21:34:10.792Z,99106.31
2023-05-06T21:38:13.841Z,99088.25
2023-05-06T21:42:17.205Z,99086.66
2023-05-06T21:46:23.823Z,99077.09
2023-05-06T21:50:28.549Z,99088.00
2023-05-06T21:54:50.156Z,99094.88
2023-05-06T21:58:54.774Z,99071.69
2023-05-06T22:02:57.970Z,99100.34
2023-05-06T22:07:03.506Z,99088.81
2023-05-06T22:11:07.167Z,99087.75
2023-05-06T22:15:11.295Z,99090.00
2023-05-06T22:19:15.377Z,99091.06
2023-05-06T22:23:22.008Z,99085.28
2023-05-06T22:27:25.299Z,99092.75
2023-05-06T22:31:35.643Z,99082.66
2023-05-06T22:35:38.703Z,99074.94
2023-05-06T22:39:43.126Z,99100.22
2023-05-06T22:43:46.122Z,99094.06
2023-05-06T22:47:49.196Z,99096.72
2023-05-06T22:51:52.727Z,99091.63
2023-05-06T22:56:01.224Z,99106.41
2023-05-06T23:00:05.659Z,99069.50
2023-05-06T23:04:08.663Z,99100.13
2023-05-06T23:08:12.283Z,99091.16
2023-05-06T23:12:16.864Z,99082.25
2023-05-06T23:16:20.356Z,99081.94
2023-05-06T23:20:23.387Z,99094.53
2023-05-06T23:24:26.500Z,99068.75
2023-05-06T23:28:35.108Z,99073.34
2023-05-06T23:32:38.708Z,99084.88
2023-05-06T23:36:42.443Z,99082.97
2023-05-06T23:40:46.127Z,99079.09
2023-05-06T23:44:50.534Z,99066.75
2023-05-06T23:48:53.653Z,99080.28
2023-05-06T23:52:56.762Z,99073.88
2023-05-06T23:56:59.974Z,99071.09
